Edgewood, Washington
Current Conditions -  °F | °C
As of 7:05 PM on Saturday 25 Oct 2014 (Local Time) from KTCM Reporting Station
Moderate Rain Moderate Rain  
Wind Chill: 57°   Ceiling: 4700
Heat Index: 57°   Visibility: 9mi
Dew Point: 55°   Wind: 21mph
Humidity: 94%   Direction: 230°SW
Pressure: 29.39"   Gusts: 31mph
Location:  47.2018°N, 122.233°W
Report Text: KTCM 260205Z AUTO 23018G27KT 190V260 9SM RA FEW002 SCT012 BKN047 14/13 A2939 RMK AO2 RAE0201 $
Loading
Personal Weather Stations






























Interactive Weather Map New forecast layout! Learn more

10-Day Weather Forecast

Advertisements
Track Severe Weather on mobile